メインページ
METAR-TAF:

METAR-TAF

空港 :

バンクーバー国際空港

バンクーバー, ブリティッシュコロンビア州, カナダ

緯度: 49-11N, 経度: 123-10W, 海抜: 3m

現時点の気象観測

当レポートは11分前の02:00(UTC)に作成
西/南西の風 6kt
気温 15°C
湿度 72%
気圧 1009 hPa
視程: 32.2km
高度4000ftの雲は散在している
高度9700ftの千切れ雲あり

METAR: CYVR 260200Z 24006KT 20SM SCT040 BKN097 15/10 A2980 RMK SC3AC2 SLP091 DENSITY ALT 200FT

時間: 19:11 (02:11 UTC)

予報

当レポートは2時間33分前の23:38(UTC)に作成
予報は26日の 00時(UTC)から 27日の 06時(UTC)まで有効
西の風 10kt
視程: 10km
高度3000ftの雲は散在している
高度6000ftの雲は散在している
26日の 00時(UTC)から 26日の 10時(UTC)まで一時的に
視程: 10km
高度3000ftの雲は散在している
高度6000ftの千切れ雲あり
弱いにわか雨
26日の 1200時(UTC)から
南/南東の風 8kt
視程: 10km
高度2000ftの雲は散在している
高度4000ftの千切れ雲あり
26日の 12時(UTC)から 26日の 18時(UTC)まで一時的に
視程: 10km
高度2000ftの千切れ雲あり
弱いにわか雨
26日の 1800時(UTC)から
南東の風 10kt
視程: 10km
高度1500ftの雲は散在している
高度3000ftの千切れ雲あり
弱いにわか雨
26日の 18時(UTC)から 27日の 06時(UTC)まで一時的に
視程: 6.4km
高度1500ftの千切れ雲あり
高度3000ftの曇り
弱いにわか雨, 靄

TAF: CYVR 252338Z 2600/2706 26010KT P6SM SCT030 SCT060 TEMPO 2600/2610 P6SM -SHRA SCT030 BKN060 FM261200 16008KT P6SM SCT020 BKN040 TEMPO 2612/2618 P6SM -SHRA BKN020 FM261800 14010KT P6SM -SHRA SCT015 BKN030 TEMPO 2618/2706 4SM -SHRA BR BKN015 OVC030 RMK NXT FCST BY 260300Z

4,000以上の空港の気象観測と天気予報(METAR報とTAF報)

利用可能な観測所は地図上に黄色い丸と赤い丸で示す。

丸の上にカーソルを重ねると観測所名を参照できる。

次にクリックすると気象観測と天気予報を参照できる。

マップの切り替え:黒色「×」印の緑ボタンをクリックして拡大、「-」印の緑ボタンをクリックして縮小、緑色の三角印をクリックして隣りの地図に切り替え


METAR-TAF: